Denver, Colorado
Traffic Map
Current Weather Conditions
Denver, Colorado
Scattered Clouds
Scattered Clouds
53°
Feels Like: 53°
Wind Chill: 53° Ceiling: Unl
Heat Index: 53° Visibility: 10mi
Dew Point: 51° Wind: 8mph
Humidity: 94% Direction: 190° (S)
Pressure: 30.17in Gusts: 0mph
Raw Report DataKBKF 280858Z 19007KT 10SM FEW120 SCT220 12/11 A3017 RMK AO2A SLP153 T01150106 56009
Traffic Incident Summary
Active as of:
Severity:
Category:
InformationThere was an issue retrieving the traffic information for this location. Please try a different location or try again shortly.
Advertisements
Track Severe Weather on mobile